sensor_id;sensor_type;location;lat;lon;timestamp;pressure;altitude;pressure_sealevel;temperature;humidity
39887;BME280;25559;44.738;20.980;2022-07-29T00:01:36;100649.38;;;24.31;nan
39887;BME280;25559;44.738;20.980;2022-07-29T00:04:02;100642.72;;;24.25;nan
39887;BME280;25559;44.738;20.980;2022-07-29T00:06:27;100638.25;;;24.26;nan
39887;BME280;25559;44.738;20.980;2022-07-29T00:08:53;100634.78;;;24.25;nan
39887;BME280;25559;44.738;20.980;2022-07-29T00:11:18;100630.84;;;24.31;nan
39887;BME280;25559;44.738;20.980;2022-07-29T00:13:44;100632.75;;;24.29;nan
39887;BME280;25559;44.738;20.980;2022-07-29T00:16:09;100638.03;;;24.29;nan
39887;BME280;25559;44.738;20.980;2022-07-29T00:18:35;100638.16;;;24.27;nan
39887;BME280;25559;44.738;20.980;2022-07-29T00:21:01;100632.97;;;24.26;nan
39887;BME280;25559;44.738;20.980;2022-07-29T00:23:26;100634.44;;;24.30;nan
39887;BME280;25559;44.738;20.980;2022-07-29T00:25:52;100630.09;;;24.29;nan
39887;BME280;25559;44.738;20.980;2022-07-29T00:28:17;100628.94;;;24.33;nan
39887;BME280;25559;44.738;20.980;2022-07-29T00:30:43;100626.28;;;24.33;nan
39887;BME280;25559;44.738;20.980;2022-07-29T00:33:09;100624.34;;;24.35;nan
39887;BME280;25559;44.738;20.980;2022-07-29T00:35:35;100633.06;;;24.37;nan
39887;BME280;25559;44.738;20.980;2022-07-29T00:38:11;100624.34;;;24.35;nan
39887;BME280;25559;44.738;20.980;2022-07-29T00:40:36;100633.56;;;24.42;nan
39887;BME280;25559;44.738;20.980;2022-07-29T00:43:02;100629.09;;;24.43;nan
39887;BME280;25559;44.738;20.980;2022-07-29T00:45:28;100630.06;;;24.42;nan
39887;BME280;25559;44.738;20.980;2022-07-29T00:47:55;100624.66;;;24.43;nan
39887;BME280;25559;44.738;20.980;2022-07-29T00:50:20;100627.19;;;24.45;nan
39887;BME280;25559;44.738;20.980;2022-07-29T00:52:46;100620.81;;;24.47;nan
39887;BME280;25559;44.738;20.980;2022-07-29T00:55:14;100619.03;;;24.48;nan
39887;BME280;25559;44.738;20.980;2022-07-29T00:57:40;100617.97;;;24.51;nan
39887;BME280;25559;44.738;20.980;2022-07-29T01:00:10;100622.06;;;24.55;nan
39887;BME280;25559;44.738;20.980;2022-07-29T01:02:36;100624.53;;;24.58;nan
39887;BME280;25559;44.738;20.980;2022-07-29T01:05:04;100616.22;;;24.62;nan
39887;BME280;25559;44.738;20.980;2022-07-29T01:07:30;100614.34;;;24.64;nan
39887;BME280;25559;44.738;20.980;2022-07-29T01:09:56;100619.41;;;24.68;nan
39887;BME280;25559;44.738;20.980;2022-07-29T01:12:24;100600.84;;;24.68;nan
39887;BME280;25559;44.738;20.980;2022-07-29T01:14:51;100608.34;;;24.74;nan
39887;BME280;25559;44.738;20.980;2022-07-29T01:17:31;100603.88;;;24.74;nan
39887;BME280;25559;44.738;20.980;2022-07-29T01:28:51;100596.41;;;24.68;nan
39887;BME280;25559;44.738;20.980;2022-07-29T01:39:38;100600.63;;;24.71;nan
39887;BME280;25559;44.738;20.980;2022-07-29T01:44:54;100604.72;;;24.75;nan
39887;BME280;25559;44.738;20.980;2022-07-29T01:47:23;100612.56;;;24.76;nan
39887;BME280;25559;44.738;20.980;2022-07-29T01:49:53;100605.47;;;24.77;nan
39887;BME280;25559;44.738;20.980;2022-07-29T01:52:25;100603.66;;;24.77;nan
39887;BME280;25559;44.738;20.980;2022-07-29T01:54:55;100609.72;;;24.79;nan
39887;BME280;25559;44.738;20.980;2022-07-29T01:57:26;100595.47;;;24.80;nan
39887;BME280;25559;44.738;20.980;2022-07-29T01:59:54;100595.47;;;24.80;nan
39887;BME280;25559;44.738;20.980;2022-07-29T02:02:21;100598.25;;;24.79;nan
39887;BME280;25559;44.738;20.980;2022-07-29T02:04:49;100598.34;;;24.77;nan
39887;BME280;25559;44.738;20.980;2022-07-29T02:07:18;100598.69;;;24.73;nan
39887;BME280;25559;44.738;20.980;2022-07-29T02:09:45;100592.91;;;24.68;nan
39887;BME280;25559;44.738;20.980;2022-07-29T02:12:14;100599.50;;;24.62;nan
39887;BME280;25559;44.738;20.980;2022-07-29T02:14:47;100594.75;;;24.54;nan
39887;BME280;25559;44.738;20.980;2022-07-29T02:17:21;100593.50;;;24.47;nan
39887;BME280;25559;44.738;20.980;2022-07-29T02:19:48;100590.78;;;24.36;nan
39887;BME280;25559;44.738;20.980;2022-07-29T02:22:16;100589.53;;;24.28;nan
39887;BME280;25559;44.738;20.980;2022-07-29T02:24:44;100592.41;;;24.25;nan
39887;BME280;25559;44.738;20.980;2022-07-29T02:27:10;100585.88;;;24.18;nan
39887;BME280;25559;44.738;20.980;2022-07-29T02:29:38;100588.72;;;24.15;nan
39887;BME280;25559;44.738;20.980;2022-07-29T02:32:07;100580.72;;;24.04;nan
39887;BME280;25559;44.738;20.980;2022-07-29T02:34:35;100590.69;;;24.00;nan
39887;BME280;25559;44.738;20.980;2022-07-29T02:37:03;100596.94;;;23.99;nan
39887;BME280;25559;44.738;20.980;2022-07-29T02:39:30;100585.94;;;23.92;nan
39887;BME280;25559;44.738;20.980;2022-07-29T02:42:08;100590.59;;;23.89;nan
39887;BME280;25559;44.738;20.980;2022-07-29T02:44:35;100596.19;;;23.84;nan
39887;BME280;25559;44.738;20.980;2022-07-29T02:50:04;100598.94;;;23.83;nan
39887;BME280;25559;44.738;20.980;2022-07-29T02:52:45;100595.88;;;23.76;nan
39887;BME280;25559;44.738;20.980;2022-07-29T02:57:57;100601.38;;;23.73;nan
39887;BME280;25559;44.738;20.980;2022-07-29T03:00:28;100600.44;;;23.74;nan
39887;BME280;25559;44.738;20.980;2022-07-29T03:02:56;100607.31;;;23.76;nan
39887;BME280;25559;44.738;20.980;2022-07-29T03:05:24;100607.31;;;23.76;nan
39887;BME280;25559;44.738;20.980;2022-07-29T03:07:55;100616.00;;;23.78;nan
39887;BME280;25559;44.738;20.980;2022-07-29T03:10:23;100620.56;;;23.76;nan
39887;BME280;25559;44.738;20.980;2022-07-29T03:12:51;100621.94;;;23.69;nan
39887;BME280;25559;44.738;20.980;2022-07-29T03:15:17;100618.44;;;23.69;nan
39887;BME280;25559;44.738;20.980;2022-07-29T03:17:44;100617.06;;;23.63;nan
39887;BME280;25559;44.738;20.980;2022-07-29T03:20:10;100629.97;;;23.68;nan
39887;BME280;25559;44.738;20.980;2022-07-29T03:22:41;100618.66;;;23.66;nan
39887;BME280;25559;44.738;20.980;2022-07-29T03:25:17;100625.94;;;23.62;nan
39887;BME280;25559;44.738;20.980;2022-07-29T03:27:43;100631.22;;;23.62;nan
39887;BME280;25559;44.738;20.980;2022-07-29T03:30:10;100628.81;;;23.59;nan
39887;BME280;25559;44.738;20.980;2022-07-29T03:32:38;100622.78;;;23.57;nan
39887;BME280;25559;44.738;20.980;2022-07-29T03:35:05;100634.63;;;23.64;nan
39887;BME280;25559;44.738;20.980;2022-07-29T03:37:31;100628.47;;;23.64;nan
39887;BME280;25559;44.738;20.980;2022-07-29T03:40:00;100631.56;;;23.57;nan
39887;BME280;25559;44.738;20.980;2022-07-29T03:42:30;100640.88;;;23.63;nan
39887;BME280;25559;44.738;20.980;2022-07-29T03:44:58;100633.47;;;23.55;nan
39887;BME280;25559;44.738;20.980;2022-07-29T03:47:27;100634.19;;;23.57;nan
39887;BME280;25559;44.738;20.980;2022-07-29T03:49:59;100636.22;;;23.54;nan
39887;BME280;25559;44.738;20.980;2022-07-29T03:52:25;100639.59;;;23.56;nan
39887;BME280;25559;44.738;20.980;2022-07-29T03:54:52;100646.69;;;23.55;nan
39887;BME280;25559;44.738;20.980;2022-07-29T03:57:20;100647.53;;;23.56;nan
39887;BME280;25559;44.738;20.980;2022-07-29T03:59:50;100641.09;;;23.60;nan
39887;BME280;25559;44.738;20.980;2022-07-29T04:02:16;100649.22;;;23.57;nan
39887;BME280;25559;44.738;20.980;2022-07-29T04:04:42;100652.50;;;23.60;nan
39887;BME280;25559;44.738;20.980;2022-07-29T04:07:12;100653.47;;;23.59;nan
39887;BME280;25559;44.738;20.980;2022-07-29T04:09:38;100651.44;;;23.63;nan
39887;BME280;25559;44.738;20.980;2022-07-29T04:12:04;100661.09;;;23.64;nan
39887;BME280;25559;44.738;20.980;2022-07-29T04:14:33;100653.47;;;23.72;nan
39887;BME280;25559;44.738;20.980;2022-07-29T04:17:00;100649.97;;;23.72;nan
39887;BME280;25559;44.738;20.980;2022-07-29T04:19:26;100651.53;;;23.74;nan
39887;BME280;25559;44.738;20.980;2022-07-29T04:21:51;100645.94;;;23.79;nan
39887;BME280;25559;44.738;20.980;2022-07-29T04:24:17;100657.06;;;23.84;nan
39887;BME280;25559;44.738;20.980;2022-07-29T04:26:43;100648.63;;;23.92;nan
39887;BME280;25559;44.738;20.980;2022-07-29T04:29:09;100653.06;;;23.91;nan
39887;BME280;25559;44.738;20.980;2022-07-29T04:31:34;100656.97;;;23.99;nan
39887;BME280;25559;44.738;20.980;2022-07-29T04:34:00;100660.16;;;24.04;nan
39887;BME280;25559;44.738;20.980;2022-07-29T04:36:25;100666.06;;;24.07;nan
39887;BME280;25559;44.738;20.980;2022-07-29T04:38:51;100662.97;;;24.13;nan
39887;BME280;25559;44.738;20.980;2022-07-29T04:41:16;100660.22;;;24.15;nan
39887;BME280;25559;44.738;20.980;2022-07-29T04:43:42;100658.84;;;24.22;nan
39887;BME280;25559;44.738;20.980;2022-07-29T04:46:07;100667.94;;;24.31;nan
39887;BME280;25559;44.738;20.980;2022-07-29T04:48:33;100660.94;;;24.30;nan
39887;BME280;25559;44.738;20.980;2022-07-29T04:50:59;100666.00;;;24.33;nan
39887;BME280;25559;44.738;20.980;2022-07-29T04:53:24;100666.50;;;24.38;nan
39887;BME280;25559;44.738;20.980;2022-07-29T04:55:51;100661.31;;;24.50;nan
39887;BME280;25559;44.738;20.980;2022-07-29T04:58:16;100665.31;;;24.55;nan
39887;BME280;25559;44.738;20.980;2022-07-29T05:00:42;100665.63;;;24.63;nan
39887;BME280;25559;44.738;20.980;2022-07-29T05:03:08;100661.56;;;24.71;nan
39887;BME280;25559;44.738;20.980;2022-07-29T05:05:33;100671.50;;;24.80;nan
39887;BME280;25559;44.738;20.980;2022-07-29T05:07:59;100670.44;;;24.82;nan
39887;BME280;25559;44.738;20.980;2022-07-29T05:10:25;100674.31;;;24.90;nan
39887;BME280;25559;44.738;20.980;2022-07-29T05:12:51;100671.94;;;24.98;nan
39887;BME280;25559;44.738;20.980;2022-07-29T05:15:16;100679.56;;;25.03;nan
39887;BME280;25559;44.738;20.980;2022-07-29T05:17:43;100684.63;;;25.06;nan
39887;BME280;25559;44.738;20.980;2022-07-29T05:20:09;100675.47;;;25.10;nan
39887;BME280;25559;44.738;20.980;2022-07-29T05:22:35;100681.28;;;25.15;nan
39887;BME280;25559;44.738;20.980;2022-07-29T05:25:01;100672.25;;;25.17;nan
39887;BME280;25559;44.738;20.980;2022-07-29T05:27:27;100678.41;;;25.18;nan
39887;BME280;25559;44.738;20.980;2022-07-29T05:29:53;100664.19;;;25.19;nan
39887;BME280;25559;44.738;20.980;2022-07-29T05:32:18;100666.16;;;25.28;nan
39887;BME280;25559;44.738;20.980;2022-07-29T05:34:44;100671.00;;;25.34;nan
39887;BME280;25559;44.738;20.980;2022-07-29T05:37:10;100669.59;;;25.42;nan
39887;BME280;25559;44.738;20.980;2022-07-29T05:39:35;100669.72;;;25.51;nan
39887;BME280;25559;44.738;20.980;2022-07-29T05:42:01;100676.13;;;25.60;nan
39887;BME280;25559;44.738;20.980;2022-07-29T05:44:26;100668.53;;;25.67;nan
39887;BME280;25559;44.738;20.980;2022-07-29T05:46:52;100668.19;;;25.71;nan
39887;BME280;25559;44.738;20.980;2022-07-29T05:49:17;100669.53;;;25.77;nan
39887;BME280;25559;44.738;20.980;2022-07-29T05:51:43;100675.94;;;25.86;nan
39887;BME280;25559;44.738;20.980;2022-07-29T05:54:09;100667.59;;;25.91;nan
39887;BME280;25559;44.738;20.980;2022-07-29T05:56:36;100667.72;;;25.89;nan
39887;BME280;25559;44.738;20.980;2022-07-29T05:59:01;100673.16;;;25.99;nan
39887;BME280;25559;44.738;20.980;2022-07-29T06:01:27;100661.47;;;26.01;nan
39887;BME280;25559;44.738;20.980;2022-07-29T06:03:53;100671.97;;;26.03;nan
39887;BME280;25559;44.738;20.980;2022-07-29T06:06:18;100672.44;;;26.08;nan
39887;BME280;25559;44.738;20.980;2022-07-29T06:08:44;100673.31;;;26.09;nan
39887;BME280;25559;44.738;20.980;2022-07-29T06:11:09;100674.38;;;26.17;nan
39887;BME280;25559;44.738;20.980;2022-07-29T06:13:35;100674.25;;;26.30;nan
39887;BME280;25559;44.738;20.980;2022-07-29T06:16:00;100671.06;;;26.48;nan
39887;BME280;25559;44.738;20.980;2022-07-29T06:18:26;100671.88;;;26.59;nan
39887;BME280;25559;44.738;20.980;2022-07-29T06:20:53;100673.44;;;26.73;nan
39887;BME280;25559;44.738;20.980;2022-07-29T06:23:19;100674.72;;;26.90;nan
39887;BME280;25559;44.738;20.980;2022-07-29T06:25:45;100683.59;;;27.12;nan
39887;BME280;25559;44.738;20.980;2022-07-29T06:28:10;100673.72;;;27.24;nan
39887;BME280;25559;44.738;20.980;2022-07-29T06:30:36;100680.84;;;27.35;nan
39887;BME280;25559;44.738;20.980;2022-07-29T06:33:02;100676.34;;;27.35;nan
39887;BME280;25559;44.738;20.980;2022-07-29T06:35:28;100685.00;;;27.48;nan
39887;BME280;25559;44.738;20.980;2022-07-29T06:37:53;100677.31;;;27.55;nan
39887;BME280;25559;44.738;20.980;2022-07-29T06:40:19;100674.91;;;27.52;nan
39887;BME280;25559;44.738;20.980;2022-07-29T06:43:04;100674.88;;;27.63;nan
39887;BME280;25559;44.738;20.980;2022-07-29T06:45:29;100676.88;;;27.71;nan
39887;BME280;25559;44.738;20.980;2022-07-29T06:47:55;100666.91;;;27.73;nan
39887;BME280;25559;44.738;20.980;2022-07-29T06:50:20;100664.38;;;27.72;nan
39887;BME280;25559;44.738;20.980;2022-07-29T06:52:47;100677.03;;;27.79;nan
39887;BME280;25559;44.738;20.980;2022-07-29T06:55:13;100669.59;;;27.83;nan
39887;BME280;25559;44.738;20.980;2022-07-29T06:57:39;100658.69;;;27.86;nan
39887;BME280;25559;44.738;20.980;2022-07-29T07:00:05;100673.03;;;27.95;nan
39887;BME280;25559;44.738;20.980;2022-07-29T07:02:31;100665.41;;;28.11;nan
39887;BME280;25559;44.738;20.980;2022-07-29T07:04:57;100671.63;;;28.31;nan
39887;BME280;25559;44.738;20.980;2022-07-29T07:07:24;100669.88;;;28.51;nan
39887;BME280;25559;44.738;20.980;2022-07-29T07:09:49;100666.56;;;28.79;nan
39887;BME280;25559;44.738;20.980;2022-07-29T07:12:15;100669.53;;;29.05;nan
39887;BME280;25559;44.738;20.980;2022-07-29T07:14:40;100671.63;;;29.21;nan
39887;BME280;25559;44.738;20.980;2022-07-29T07:17:06;100677.66;;;29.33;nan
39887;BME280;25559;44.738;20.980;2022-07-29T07:19:33;100664.03;;;29.46;nan
39887;BME280;25559;44.738;20.980;2022-07-29T07:21:58;100662.94;;;29.76;nan
39887;BME280;25559;44.738;20.980;2022-07-29T07:24:24;100667.47;;;30.03;nan
39887;BME280;25559;44.738;20.980;2022-07-29T07:26:49;100657.59;;;30.13;nan
39887;BME280;25559;44.738;20.980;2022-07-29T07:29:15;100660.16;;;30.43;nan
39887;BME280;25559;44.738;20.980;2022-07-29T07:31:41;100663.38;;;30.64;nan
39887;BME280;25559;44.738;20.980;2022-07-29T07:34:06;100660.53;;;30.84;nan
39887;BME280;25559;44.738;20.980;2022-07-29T07:36:32;100661.69;;;31.17;nan
39887;BME280;25559;44.738;20.980;2022-07-29T07:38:57;100659.16;;;31.42;nan
39887;BME280;25559;44.738;20.980;2022-07-29T07:41:23;100663.78;;;31.84;nan
39887;BME280;25559;44.738;20.980;2022-07-29T07:43:49;100665.31;;;32.21;nan
39887;BME280;25559;44.738;20.980;2022-07-29T07:46:14;100669.63;;;32.65;nan
39887;BME280;25559;44.738;20.980;2022-07-29T07:48:40;100666.78;;;33.08;nan
39887;BME280;25559;44.738;20.980;2022-07-29T07:51:06;100669.13;;;33.52;nan
39887;BME280;25559;44.738;20.980;2022-07-29T07:53:32;100664.09;;;34.05;nan
39887;BME280;25559;44.738;20.980;2022-07-29T07:55:58;100662.88;;;34.70;nan
39887;BME280;25559;44.738;20.980;2022-07-29T07:58:24;100667.50;;;35.46;nan
39887;BME280;25559;44.738;20.980;2022-07-29T08:00:49;100664.78;;;36.21;nan
39887;BME280;25559;44.738;20.980;2022-07-29T08:03:15;100672.03;;;37.00;nan
39887;BME280;25559;44.738;20.980;2022-07-29T08:05:41;100665.66;;;37.64;nan
39887;BME280;25559;44.738;20.980;2022-07-29T08:08:07;100658.94;;;38.50;nan
39887;BME280;25559;44.738;20.980;2022-07-29T08:10:33;100655.47;;;39.30;nan
39887;BME280;25559;44.738;20.980;2022-07-29T08:13:18;100660.03;;;40.08;nan
39887;BME280;25559;44.738;20.980;2022-07-29T08:15:44;100658.88;;;40.29;nan
39887;BME280;25559;44.738;20.980;2022-07-29T08:18:12;100662.16;;;40.38;nan
39887;BME280;25559;44.738;20.980;2022-07-29T08:20:38;100653.25;;;40.63;nan
39887;BME280;25559;44.738;20.980;2022-07-29T08:23:06;100653.25;;;41.38;nan
39887;BME280;25559;44.738;20.980;2022-07-29T08:25:35;100653.09;;;41.70;nan
39887;BME280;25559;44.738;20.980;2022-07-29T08:28:01;100658.97;;;42.23;nan
39887;BME280;25559;44.738;20.980;2022-07-29T08:30:27;100666.47;;;42.51;nan
39887;BME280;25559;44.738;20.980;2022-07-29T08:32:52;100660.53;;;42.42;nan
39887;BME280;25559;44.738;20.980;2022-07-29T08:35:19;100658.53;;;42.92;nan
39887;BME280;25559;44.738;20.980;2022-07-29T08:37:45;100661.72;;;43.24;nan
39887;BME280;25559;44.738;20.980;2022-07-29T08:40:11;100663.28;;;43.96;nan
39887;BME280;25559;44.738;20.980;2022-07-29T08:42:37;100659.19;;;44.57;nan
39887;BME280;25559;44.738;20.980;2022-07-29T08:45:04;100649.03;;;45.03;nan
39887;BME280;25559;44.738;20.980;2022-07-29T08:47:30;100661.06;;;44.68;nan
39887;BME280;25559;44.738;20.980;2022-07-29T08:49:55;100654.03;;;45.28;nan
39887;BME280;25559;44.738;20.980;2022-07-29T08:52:25;100656.16;;;45.65;nan
39887;BME280;25559;44.738;20.980;2022-07-29T08:54:52;100652.69;;;46.19;nan
39887;BME280;25559;44.738;20.980;2022-07-29T08:57:19;100658.66;;;46.76;nan
39887;BME280;25559;44.738;20.980;2022-07-29T08:59:46;100658.66;;;47.13;nan
39887;BME280;25559;44.738;20.980;2022-07-29T09:02:22;100656.84;;;47.34;nan
39887;BME280;25559;44.738;20.980;2022-07-29T09:04:49;100662.00;;;47.89;nan
39887;BME280;25559;44.738;20.980;2022-07-29T09:07:18;100660.78;;;47.54;nan
39887;BME280;25559;44.738;20.980;2022-07-29T09:09:44;100667.50;;;46.23;nan
39887;BME280;25559;44.738;20.980;2022-07-29T09:12:11;100655.06;;;44.54;nan
39887;BME280;25559;44.738;20.980;2022-07-29T09:14:40;100651.19;;;43.04;nan
39887;BME280;25559;44.738;20.980;2022-07-29T09:17:07;100649.88;;;43.42;nan
39887;BME280;25559;44.738;20.980;2022-07-29T09:19:34;100652.06;;;44.56;nan
39887;BME280;25559;44.738;20.980;2022-07-29T09:22:06;100657.31;;;45.69;nan
39887;BME280;25559;44.738;20.980;2022-07-29T09:27:24;100654.78;;;47.09;nan
39887;BME280;25559;44.738;20.980;2022-07-29T09:32:30;100653.03;;;48.76;nan
39887;BME280;25559;44.738;20.980;2022-07-29T09:37:42;100643.69;;;50.13;nan
39887;BME280;25559;44.738;20.980;2022-07-29T09:40:12;100651.72;;;50.73;nan
39887;BME280;25559;44.738;20.980;2022-07-29T09:42:38;100638.63;;;49.25;nan
39887;BME280;25559;44.738;20.980;2022-07-29T09:45:04;100637.97;;;49.49;nan
39887;BME280;25559;44.738;20.980;2022-07-29T09:47:59;100637.66;;;48.49;nan
39887;BME280;25559;44.738;20.980;2022-07-29T09:50:39;100622.19;;;47.92;nan
39887;BME280;25559;44.738;20.980;2022-07-29T09:53:05;100632.41;;;47.33;nan
39887;BME280;25559;44.738;20.980;2022-07-29T09:55:31;100625.50;;;46.45;nan
39887;BME280;25559;44.738;20.980;2022-07-29T09:58:19;100628.75;;;45.21;nan
39887;BME280;25559;44.738;20.980;2022-07-29T10:00:46;100622.09;;;43.98;nan
39887;BME280;25559;44.738;20.980;2022-07-29T10:03:13;100614.06;;;43.15;nan
39887;BME280;25559;44.738;20.980;2022-07-29T10:05:39;100618.63;;;41.83;nan
39887;BME280;25559;44.738;20.980;2022-07-29T10:08:08;100611.22;;;41.16;nan
39887;BME280;25559;44.738;20.980;2022-07-29T10:10:37;100616.81;;;40.39;nan
39887;BME280;25559;44.738;20.980;2022-07-29T10:13:05;100617.91;;;39.99;nan
39887;BME280;25559;44.738;20.980;2022-07-29T10:15:34;100611.88;;;39.32;nan
39887;BME280;25559;44.738;20.980;2022-07-29T10:18:03;100602.09;;;38.70;nan
39887;BME280;25559;44.738;20.980;2022-07-29T10:20:29;100603.47;;;38.13;nan
39887;BME280;25559;44.738;20.980;2022-07-29T10:22:55;100601.91;;;37.83;nan
39887;BME280;25559;44.738;20.980;2022-07-29T10:25:22;100600.06;;;37.49;nan
39887;BME280;25559;44.738;20.980;2022-07-29T10:27:49;100597.78;;;37.17;nan
39887;BME280;25559;44.738;20.980;2022-07-29T10:30:17;100600.88;;;36.86;nan
39887;BME280;25559;44.738;20.980;2022-07-29T10:41:06;100586.16;;;35.72;nan
39887;BME280;25559;44.738;20.980;2022-07-29T10:43:53;100582.94;;;35.47;nan
39887;BME280;25559;44.738;20.980;2022-07-29T10:46:21;100579.94;;;35.27;nan
39887;BME280;25559;44.738;20.980;2022-07-29T10:49:19;100569.88;;;35.21;nan
39887;BME280;25559;44.738;20.980;2022-07-29T10:51:56;100558.94;;;35.08;nan
39887;BME280;25559;44.738;20.980;2022-07-29T10:54:39;100560.59;;;34.70;nan
39887;BME280;25559;44.738;20.980;2022-07-29T10:57:16;100548.69;;;34.50;nan
39887;BME280;25559;44.738;20.980;2022-07-29T10:59:43;100562.72;;;34.37;nan
39887;BME280;25559;44.738;20.980;2022-07-29T11:05:00;100550.16;;;34.06;nan
39887;BME280;25559;44.738;20.980;2022-07-29T11:07:27;100545.41;;;33.85;nan
39887;BME280;25559;44.738;20.980;2022-07-29T11:15:10;100532.78;;;33.86;nan
39887;BME280;25559;44.738;20.980;2022-07-29T11:20:44;100525.75;;;33.85;nan
39887;BME280;25559;44.738;20.980;2022-07-29T11:23:30;100517.56;;;33.70;nan
39887;BME280;25559;44.738;20.980;2022-07-29T11:29:08;100514.75;;;33.63;nan
39887;BME280;25559;44.738;20.980;2022-07-29T11:31:47;100510.31;;;33.47;nan
39887;BME280;25559;44.738;20.980;2022-07-29T11:34:30;100517.56;;;33.38;nan
39887;BME280;25559;44.738;20.980;2022-07-29T11:39:38;100510.25;;;33.55;nan
39887;BME280;25559;44.738;20.980;2022-07-29T11:44:58;100508.34;;;33.72;nan
39887;BME280;25559;44.738;20.980;2022-07-29T11:47:25;100512.41;;;33.60;nan
39887;BME280;25559;44.738;20.980;2022-07-29T11:49:54;100507.00;;;33.68;nan
39887;BME280;25559;44.738;20.980;2022-07-29T11:52:20;100503.16;;;33.62;nan
39887;BME280;25559;44.738;20.980;2022-07-29T11:54:50;100510.22;;;33.63;nan
39887;BME280;25559;44.738;20.980;2022-07-29T11:57:17;100509.06;;;33.58;nan
39887;BME280;25559;44.738;20.980;2022-07-29T11:59:45;100511.81;;;33.50;nan
39887;BME280;25559;44.738;20.980;2022-07-29T12:02:12;100506.28;;;33.43;nan
39887;BME280;25559;44.738;20.980;2022-07-29T12:04:55;100510.13;;;33.49;nan
39887;BME280;25559;44.738;20.980;2022-07-29T12:07:30;100500.00;;;33.59;nan
39887;BME280;25559;44.738;20.980;2022-07-29T12:09:57;100504.56;;;33.50;nan
39887;BME280;25559;44.738;20.980;2022-07-29T12:12:22;100500.47;;;33.62;nan
39887;BME280;25559;44.738;20.980;2022-07-29T12:14:49;100506.38;;;33.58;nan
39887;BME280;25559;44.738;20.980;2022-07-29T12:17:32;100511.28;;;33.54;nan
39887;BME280;25559;44.738;20.980;2022-07-29T12:19:59;100504.41;;;33.43;nan
39887;BME280;25559;44.738;20.980;2022-07-29T12:22:27;100496.22;;;33.37;nan
39887;BME280;25559;44.738;20.980;2022-07-29T12:24:54;100489.72;;;33.15;nan
39887;BME280;25559;44.738;20.980;2022-07-29T12:27:19;100497.53;;;32.76;nan
39887;BME280;25559;44.738;20.980;2022-07-29T12:30:05;100499.91;;;32.63;nan
39887;BME280;25559;44.738;20.980;2022-07-29T12:32:47;100490.19;;;32.62;nan
39887;BME280;25559;44.738;20.980;2022-07-29T12:35:15;100490.19;;;32.62;nan
39887;BME280;25559;44.738;20.980;2022-07-29T12:37:44;100491.03;;;32.71;nan
39887;BME280;25559;44.738;20.980;2022-07-29T12:40:12;100488.03;;;32.74;nan
39887;BME280;25559;44.738;20.980;2022-07-29T12:42:39;100477.28;;;32.74;nan
39887;BME280;25559;44.738;20.980;2022-07-29T12:45:06;100481.44;;;32.76;nan
39887;BME280;25559;44.738;20.980;2022-07-29T12:47:32;100473.09;;;32.71;nan
39887;BME280;25559;44.738;20.980;2022-07-29T12:50:17;100473.59;;;32.67;nan
39887;BME280;25559;44.738;20.980;2022-07-29T12:52:44;100469.06;;;32.67;nan
39887;BME280;25559;44.738;20.980;2022-07-29T12:55:11;100467.72;;;32.63;nan
39887;BME280;25559;44.738;20.980;2022-07-29T12:57:49;100463.19;;;32.47;nan
39887;BME280;25559;44.738;20.980;2022-07-29T13:00:24;100466.22;;;32.44;nan
39887;BME280;25559;44.738;20.980;2022-07-29T13:02:58;100459.84;;;32.45;nan
39887;BME280;25559;44.738;20.980;2022-07-29T13:05:39;100451.28;;;32.41;nan
39887;BME280;25559;44.738;20.980;2022-07-29T13:08:12;100450.44;;;32.49;nan
39887;BME280;25559;44.738;20.980;2022-07-29T13:10:39;100440.41;;;32.51;nan
39887;BME280;25559;44.738;20.980;2022-07-29T13:13:13;100454.97;;;32.57;nan
39887;BME280;25559;44.738;20.980;2022-07-29T13:15:41;100441.41;;;32.58;nan
39887;BME280;25559;44.738;20.980;2022-07-29T13:18:26;100442.06;;;32.61;nan
39887;BME280;25559;44.738;20.980;2022-07-29T13:20:52;100445.91;;;32.58;nan
39887;BME280;25559;44.738;20.980;2022-07-29T13:23:18;100444.25;;;32.57;nan
39887;BME280;25559;44.738;20.980;2022-07-29T13:25:43;100430.84;;;32.65;nan
39887;BME280;25559;44.738;20.980;2022-07-29T13:28:09;100428.00;;;32.67;nan
39887;BME280;25559;44.738;20.980;2022-07-29T13:30:35;100435.19;;;32.74;nan
39887;BME280;25559;44.738;20.980;2022-07-29T13:33:01;100421.94;;;32.73;nan
39887;BME280;25559;44.738;20.980;2022-07-29T13:35:26;100422.41;;;32.76;nan
39887;BME280;25559;44.738;20.980;2022-07-29T13:37:55;100415.53;;;32.82;nan
39887;BME280;25559;44.738;20.980;2022-07-29T13:40:20;100412.84;;;32.90;nan
39887;BME280;25559;44.738;20.980;2022-07-29T13:42:46;100412.50;;;32.93;nan
39887;BME280;25559;44.738;20.980;2022-07-29T13:45:12;100408.47;;;32.89;nan
39887;BME280;25559;44.738;20.980;2022-07-29T13:47:38;100405.31;;;32.78;nan
39887;BME280;25559;44.738;20.980;2022-07-29T13:50:06;100409.47;;;32.88;nan
39887;BME280;25559;44.738;20.980;2022-07-29T13:52:32;100402.94;;;32.91;nan
39887;BME280;25559;44.738;20.980;2022-07-29T13:54:59;100402.09;;;32.90;nan
39887;BME280;25559;44.738;20.980;2022-07-29T13:57:25;100408.13;;;32.92;nan
39887;BME280;25559;44.738;20.980;2022-07-29T13:59:50;100395.88;;;32.90;nan
39887;BME280;25559;44.738;20.980;2022-07-29T14:02:16;100392.00;;;32.92;nan
39887;BME280;25559;44.738;20.980;2022-07-29T14:04:42;100394.69;;;32.92;nan
39887;BME280;25559;44.738;20.980;2022-07-29T14:07:07;100391.66;;;32.96;nan